sensor_id;sensor_type;location;lat;lon;timestamp;P1;durP1;ratioP1;P2;durP2;ratioP2
71104;SDS011;58760;48.716;8.962;2022-10-16T00:01:15;3.45;;;1.40;;
71104;SDS011;58760;48.716;8.962;2022-10-16T00:03:43;3.53;;;1.45;;
71104;SDS011;58760;48.716;8.962;2022-10-16T00:06:09;2.92;;;1.27;;
71104;SDS011;58760;48.716;8.962;2022-10-16T00:08:36;5.13;;;1.50;;
71104;SDS011;58760;48.716;8.962;2022-10-16T00:13:29;3.67;;;1.38;;
71104;SDS011;58760;48.716;8.962;2022-10-16T00:15:56;3.30;;;1.33;;
71104;SDS011;58760;48.716;8.962;2022-10-16T00:18:23;3.67;;;1.50;;
71104;SDS011;58760;48.716;8.962;2022-10-16T00:20:48;3.70;;;1.30;;
71104;SDS011;58760;48.716;8.962;2022-10-16T00:23:14;3.70;;;1.20;;
71104;SDS011;58760;48.716;8.962;2022-10-16T00:25:39;3.50;;;1.40;;
71104;SDS011;58760;48.716;8.962;2022-10-16T00:28:04;3.60;;;1.58;;
71104;SDS011;58760;48.716;8.962;2022-10-16T00:30:30;4.18;;;1.52;;
71104;SDS011;58760;48.716;8.962;2022-10-16T00:32:55;3.05;;;1.55;;
71104;SDS011;58760;48.716;8.962;2022-10-16T00:35:21;4.13;;;1.42;;
71104;SDS011;58760;48.716;8.962;2022-10-16T00:37:46;3.22;;;1.30;;
71104;SDS011;58760;48.716;8.962;2022-10-16T00:40:12;3.42;;;1.50;;
71104;SDS011;58760;48.716;8.962;2022-10-16T00:42:37;3.80;;;1.40;;
71104;SDS011;58760;48.716;8.962;2022-10-16T00:45:03;3.72;;;1.58;;
71104;SDS011;58760;48.716;8.962;2022-10-16T00:47:30;3.10;;;1.40;;
71104;SDS011;58760;48.716;8.962;2022-10-16T00:50:07;3.97;;;1.50;;
71104;SDS011;58760;48.716;8.962;2022-10-16T00:52:34;5.32;;;1.63;;
71104;SDS011;58760;48.716;8.962;2022-10-16T00:55:02;4.30;;;1.48;;
71104;SDS011;58760;48.716;8.962;2022-10-16T00:57:29;4.65;;;1.55;;
71104;SDS011;58760;48.716;8.962;2022-10-16T00:59:54;3.25;;;1.50;;
71104;SDS011;58760;48.716;8.962;2022-10-16T01:02:20;4.53;;;1.60;;
71104;SDS011;58760;48.716;8.962;2022-10-16T01:04:47;3.85;;;1.20;;
71104;SDS011;58760;48.716;8.962;2022-10-16T01:07:20;8.18;;;1.63;;
71104;SDS011;58760;48.716;8.962;2022-10-16T01:12:50;5.45;;;1.30;;
71104;SDS011;58760;48.716;8.962;2022-10-16T01:17:53;4.50;;;1.42;;
71104;SDS011;58760;48.716;8.962;2022-10-16T01:25:39;3.60;;;1.40;;
71104;SDS011;58760;48.716;8.962;2022-10-16T01:28:09;5.13;;;1.35;;
71104;SDS011;58760;48.716;8.962;2022-10-16T01:30:38;4.40;;;1.45;;
71104;SDS011;58760;48.716;8.962;2022-10-16T01:33:11;2.42;;;1.30;;
71104;SDS011;58760;48.716;8.962;2022-10-16T01:35:39;5.57;;;1.45;;
71104;SDS011;58760;48.716;8.962;2022-10-16T01:38:16;3.15;;;1.42;;
71104;SDS011;58760;48.716;8.962;2022-10-16T01:40:47;12.40;;;1.50;;
71104;SDS011;58760;48.716;8.962;2022-10-16T01:43:19;4.93;;;1.33;;
71104;SDS011;58760;48.716;8.962;2022-10-16T01:45:47;3.13;;;1.40;;
71104;SDS011;58760;48.716;8.962;2022-10-16T01:48:14;4.90;;;1.42;;
71104;SDS011;58760;48.716;8.962;2022-10-16T01:50:43;5.22;;;1.45;;
71104;SDS011;58760;48.716;8.962;2022-10-16T01:53:12;3.08;;;1.20;;
71104;SDS011;58760;48.716;8.962;2022-10-16T01:55:41;3.85;;;1.20;;
71104;SDS011;58760;48.716;8.962;2022-10-16T01:58:10;3.40;;;1.33;;
71104;SDS011;58760;48.716;8.962;2022-10-16T02:00:38;4.47;;;1.63;;
71104;SDS011;58760;48.716;8.962;2022-10-16T02:03:06;4.03;;;1.48;;
71104;SDS011;58760;48.716;8.962;2022-10-16T02:05:37;4.30;;;1.45;;
71104;SDS011;58760;48.716;8.962;2022-10-16T02:08:04;4.22;;;1.45;;
71104;SDS011;58760;48.716;8.962;2022-10-16T02:10:30;5.13;;;1.70;;
71104;SDS011;58760;48.716;8.962;2022-10-16T02:13:09;3.30;;;1.38;;
71104;SDS011;58760;48.716;8.962;2022-10-16T02:15:38;3.75;;;1.27;;
71104;SDS011;58760;48.716;8.962;2022-10-16T02:18:04;3.75;;;1.35;;
71104;SDS011;58760;48.716;8.962;2022-10-16T02:20:32;4.63;;;1.25;;
71104;SDS011;58760;48.716;8.962;2022-10-16T02:23:04;2.38;;;1.25;;
71104;SDS011;58760;48.716;8.962;2022-10-16T02:25:36;2.88;;;1.33;;
71104;SDS011;58760;48.716;8.962;2022-10-16T02:28:22;4.45;;;1.33;;
71104;SDS011;58760;48.716;8.962;2022-10-16T02:30:52;3.58;;;1.42;;
71104;SDS011;58760;48.716;8.962;2022-10-16T02:33:23;2.90;;;1.10;;
71104;SDS011;58760;48.716;8.962;2022-10-16T02:35:51;5.50;;;1.40;;
71104;SDS011;58760;48.716;8.962;2022-10-16T02:38:18;3.88;;;1.20;;
71104;SDS011;58760;48.716;8.962;2022-10-16T02:40:45;2.38;;;1.00;;
71104;SDS011;58760;48.716;8.962;2022-10-16T02:43:11;4.03;;;1.33;;
71104;SDS011;58760;48.716;8.962;2022-10-16T02:45:37;3.65;;;1.30;;
71104;SDS011;58760;48.716;8.962;2022-10-16T02:48:02;2.45;;;1.20;;
71104;SDS011;58760;48.716;8.962;2022-10-16T02:50:28;3.67;;;1.30;;
71104;SDS011;58760;48.716;8.962;2022-10-16T02:52:53;2.65;;;1.05;;
71104;SDS011;58760;48.716;8.962;2022-10-16T02:55:18;5.38;;;1.40;;
71104;SDS011;58760;48.716;8.962;2022-10-16T02:57:44;3.55;;;1.40;;
71104;SDS011;58760;48.716;8.962;2022-10-16T03:00:10;2.35;;;1.33;;
71104;SDS011;58760;48.716;8.962;2022-10-16T03:02:37;2.60;;;1.10;;
71104;SDS011;58760;48.716;8.962;2022-10-16T03:05:03;2.83;;;1.17;;
71104;SDS011;58760;48.716;8.962;2022-10-16T03:07:29;6.60;;;1.35;;
71104;SDS011;58760;48.716;8.962;2022-10-16T03:09:54;5.32;;;1.20;;
71104;SDS011;58760;48.716;8.962;2022-10-16T03:12:20;2.25;;;1.25;;
71104;SDS011;58760;48.716;8.962;2022-10-16T03:14:46;2.75;;;1.20;;
71104;SDS011;58760;48.716;8.962;2022-10-16T03:17:12;2.85;;;1.30;;
71104;SDS011;58760;48.716;8.962;2022-10-16T03:19:38;2.33;;;1.15;;
71104;SDS011;58760;48.716;8.962;2022-10-16T03:22:04;3.15;;;1.17;;
71104;SDS011;58760;48.716;8.962;2022-10-16T03:24:29;2.05;;;1.10;;
71104;SDS011;58760;48.716;8.962;2022-10-16T03:26:54;3.58;;;1.30;;
71104;SDS011;58760;48.716;8.962;2022-10-16T03:29:20;3.65;;;1.20;;
71104;SDS011;58760;48.716;8.962;2022-10-16T03:31:45;5.50;;;1.42;;
71104;SDS011;58760;48.716;8.962;2022-10-16T03:34:11;2.88;;;1.27;;
71104;SDS011;58760;48.716;8.962;2022-10-16T03:36:36;9.43;;;1.40;;
71104;SDS011;58760;48.716;8.962;2022-10-16T03:39:01;2.35;;;1.17;;
71104;SDS011;58760;48.716;8.962;2022-10-16T03:41:27;4.65;;;1.30;;
71104;SDS011;58760;48.716;8.962;2022-10-16T03:43:52;3.13;;;1.45;;
71104;SDS011;58760;48.716;8.962;2022-10-16T03:46:18;4.55;;;1.42;;
71104;SDS011;58760;48.716;8.962;2022-10-16T03:48:43;4.20;;;1.30;;
71104;SDS011;58760;48.716;8.962;2022-10-16T03:51:08;2.35;;;1.20;;
71104;SDS011;58760;48.716;8.962;2022-10-16T03:53:34;4.30;;;1.20;;
71104;SDS011;58760;48.716;8.962;2022-10-16T03:55:59;6.20;;;1.45;;
71104;SDS011;58760;48.716;8.962;2022-10-16T03:58:25;3.97;;;1.25;;
71104;SDS011;58760;48.716;8.962;2022-10-16T04:00:50;3.92;;;1.30;;
71104;SDS011;58760;48.716;8.962;2022-10-16T04:03:15;2.75;;;1.20;;
71104;SDS011;58760;48.716;8.962;2022-10-16T04:08:07;6.10;;;1.60;;
71104;SDS011;58760;48.716;8.962;2022-10-16T04:10:33;3.08;;;1.25;;
71104;SDS011;58760;48.716;8.962;2022-10-16T04:12:58;3.22;;;1.17;;
71104;SDS011;58760;48.716;8.962;2022-10-16T04:15:24;1.70;;;1.10;;
71104;SDS011;58760;48.716;8.962;2022-10-16T04:17:50;2.55;;;1.10;;
71104;SDS011;58760;48.716;8.962;2022-10-16T04:20:16;2.33;;;1.13;;
71104;SDS011;58760;48.716;8.962;2022-10-16T04:22:41;2.53;;;1.27;;
71104;SDS011;58760;48.716;8.962;2022-10-16T04:25:07;2.58;;;1.25;;
71104;SDS011;58760;48.716;8.962;2022-10-16T04:27:33;2.00;;;1.20;;
71104;SDS011;58760;48.716;8.962;2022-10-16T04:29:58;3.05;;;1.13;;
71104;SDS011;58760;48.716;8.962;2022-10-16T04:32:25;3.88;;;1.25;;
71104;SDS011;58760;48.716;8.962;2022-10-16T04:34:51;3.13;;;1.30;;
71104;SDS011;58760;48.716;8.962;2022-10-16T04:37:16;3.42;;;1.42;;
71104;SDS011;58760;48.716;8.962;2022-10-16T04:39:42;3.08;;;1.35;;
71104;SDS011;58760;48.716;8.962;2022-10-16T04:42:07;2.28;;;1.15;;
71104;SDS011;58760;48.716;8.962;2022-10-16T04:44:33;2.20;;;1.20;;
71104;SDS011;58760;48.716;8.962;2022-10-16T04:46:58;6.57;;;1.23;;
71104;SDS011;58760;48.716;8.962;2022-10-16T04:49:24;2.83;;;1.20;;
71104;SDS011;58760;48.716;8.962;2022-10-16T04:51:49;2.85;;;1.40;;
71104;SDS011;58760;48.716;8.962;2022-10-16T04:54:14;4.30;;;1.10;;
71104;SDS011;58760;48.716;8.962;2022-10-16T04:56:40;2.38;;;1.15;;
71104;SDS011;58760;48.716;8.962;2022-10-16T04:59:11;3.75;;;1.13;;
71104;SDS011;58760;48.716;8.962;2022-10-16T05:01:37;2.50;;;1.20;;
71104;SDS011;58760;48.716;8.962;2022-10-16T05:04:03;3.38;;;1.20;;
71104;SDS011;58760;48.716;8.962;2022-10-16T05:06:29;5.38;;;1.75;;
71104;SDS011;58760;48.716;8.962;2022-10-16T05:08:54;3.78;;;1.20;;
71104;SDS011;58760;48.716;8.962;2022-10-16T05:11:20;3.72;;;1.30;;
71104;SDS011;58760;48.716;8.962;2022-10-16T05:13:45;4.07;;;1.30;;
71104;SDS011;58760;48.716;8.962;2022-10-16T05:16:10;3.03;;;1.30;;
71104;SDS011;58760;48.716;8.962;2022-10-16T05:18:36;2.92;;;1.50;;
71104;SDS011;58760;48.716;8.962;2022-10-16T05:21:01;3.55;;;1.30;;
71104;SDS011;58760;48.716;8.962;2022-10-16T05:23:27;4.47;;;1.20;;
71104;SDS011;58760;48.716;8.962;2022-10-16T05:25:53;4.55;;;1.33;;
71104;SDS011;58760;48.716;8.962;2022-10-16T05:28:20;5.25;;;1.50;;
71104;SDS011;58760;48.716;8.962;2022-10-16T05:30:46;5.28;;;1.10;;
71104;SDS011;58760;48.716;8.962;2022-10-16T05:33:11;3.53;;;1.30;;
71104;SDS011;58760;48.716;8.962;2022-10-16T05:35:36;5.00;;;1.25;;
71104;SDS011;58760;48.716;8.962;2022-10-16T05:38:02;3.63;;;1.60;;
71104;SDS011;58760;48.716;8.962;2022-10-16T05:40:27;3.55;;;1.20;;
71104;SDS011;58760;48.716;8.962;2022-10-16T05:42:55;3.85;;;1.30;;
71104;SDS011;58760;48.716;8.962;2022-10-16T05:45:21;3.00;;;1.23;;
71104;SDS011;58760;48.716;8.962;2022-10-16T05:47:46;2.65;;;1.10;;
71104;SDS011;58760;48.716;8.962;2022-10-16T05:50:12;3.35;;;1.20;;
71104;SDS011;58760;48.716;8.962;2022-10-16T05:52:37;2.25;;;1.10;;
71104;SDS011;58760;48.716;8.962;2022-10-16T05:55:03;4.25;;;1.42;;
71104;SDS011;58760;48.716;8.962;2022-10-16T05:57:28;5.03;;;1.30;;
71104;SDS011;58760;48.716;8.962;2022-10-16T05:59:54;4.18;;;1.35;;
71104;SDS011;58760;48.716;8.962;2022-10-16T06:02:20;3.50;;;1.35;;
71104;SDS011;58760;48.716;8.962;2022-10-16T06:04:46;3.95;;;1.30;;
71104;SDS011;58760;48.716;8.962;2022-10-16T06:07:11;4.18;;;1.38;;
71104;SDS011;58760;48.716;8.962;2022-10-16T06:09:36;2.30;;;1.27;;
71104;SDS011;58760;48.716;8.962;2022-10-16T06:12:02;4.88;;;1.25;;
71104;SDS011;58760;48.716;8.962;2022-10-16T06:14:28;4.65;;;1.23;;
71104;SDS011;58760;48.716;8.962;2022-10-16T06:16:53;3.25;;;1.05;;
71104;SDS011;58760;48.716;8.962;2022-10-16T06:19:18;2.78;;;1.33;;
71104;SDS011;58760;48.716;8.962;2022-10-16T06:21:44;4.00;;;1.27;;
71104;SDS011;58760;48.716;8.962;2022-10-16T06:24:10;3.67;;;1.23;;
71104;SDS011;58760;48.716;8.962;2022-10-16T06:26:35;3.83;;;1.33;;
71104;SDS011;58760;48.716;8.962;2022-10-16T06:29:01;4.82;;;1.40;;
71104;SDS011;58760;48.716;8.962;2022-10-16T06:31:27;4.20;;;1.50;;
71104;SDS011;58760;48.716;8.962;2022-10-16T06:33:55;2.78;;;1.40;;
71104;SDS011;58760;48.716;8.962;2022-10-16T06:36:22;3.42;;;1.40;;
71104;SDS011;58760;48.716;8.962;2022-10-16T06:38:49;3.83;;;1.45;;
71104;SDS011;58760;48.716;8.962;2022-10-16T06:41:15;5.32;;;1.25;;
71104;SDS011;58760;48.716;8.962;2022-10-16T06:43:42;2.45;;;1.27;;
71104;SDS011;58760;48.716;8.962;2022-10-16T06:46:10;2.58;;;1.30;;
71104;SDS011;58760;48.716;8.962;2022-10-16T06:48:37;4.82;;;1.40;;
71104;SDS011;58760;48.716;8.962;2022-10-16T06:51:12;5.07;;;1.30;;
71104;SDS011;58760;48.716;8.962;2022-10-16T06:53:41;3.15;;;1.30;;
71104;SDS011;58760;48.716;8.962;2022-10-16T06:56:17;4.03;;;1.48;;
71104;SDS011;58760;48.716;8.962;2022-10-16T06:58:45;2.22;;;1.25;;
71104;SDS011;58760;48.716;8.962;2022-10-16T07:01:12;2.58;;;1.10;;
71104;SDS011;58760;48.716;8.962;2022-10-16T07:03:39;3.38;;;1.33;;
71104;SDS011;58760;48.716;8.962;2022-10-16T07:06:05;3.97;;;1.80;;
71104;SDS011;58760;48.716;8.962;2022-10-16T07:08:32;1.95;;;1.10;;
71104;SDS011;58760;48.716;8.962;2022-10-16T07:11:03;4.97;;;1.30;;
71104;SDS011;58760;48.716;8.962;2022-10-16T07:13:31;3.60;;;1.40;;
71104;SDS011;58760;48.716;8.962;2022-10-16T07:15:58;2.42;;;1.30;;
71104;SDS011;58760;48.716;8.962;2022-10-16T07:18:31;4.78;;;1.30;;
71104;SDS011;58760;48.716;8.962;2022-10-16T07:21:04;6.05;;;1.77;;
71104;SDS011;58760;48.716;8.962;2022-10-16T07:23:34;3.85;;;1.20;;
71104;SDS011;58760;48.716;8.962;2022-10-16T07:26:00;2.80;;;1.15;;
71104;SDS011;58760;48.716;8.962;2022-10-16T07:28:26;3.75;;;1.30;;
71104;SDS011;58760;48.716;8.962;2022-10-16T07:30:52;4.20;;;1.40;;
71104;SDS011;58760;48.716;8.962;2022-10-16T07:33:17;3.30;;;1.23;;
71104;SDS011;58760;48.716;8.962;2022-10-16T07:35:52;4.45;;;1.27;;
71104;SDS011;58760;48.716;8.962;2022-10-16T07:38:19;5.10;;;1.50;;
71104;SDS011;58760;48.716;8.962;2022-10-16T07:40:45;1.92;;;1.00;;
71104;SDS011;58760;48.716;8.962;2022-10-16T07:43:11;4.03;;;1.48;;
71104;SDS011;58760;48.716;8.962;2022-10-16T07:45:37;3.03;;;1.30;;
71104;SDS011;58760;48.716;8.962;2022-10-16T07:50:28;5.53;;;1.30;;
71104;SDS011;58760;48.716;8.962;2022-10-16T07:52:54;5.85;;;1.30;;
71104;SDS011;58760;48.716;8.962;2022-10-16T07:55:19;4.95;;;1.42;;
71104;SDS011;58760;48.716;8.962;2022-10-16T07:57:44;2.72;;;1.33;;
71104;SDS011;58760;48.716;8.962;2022-10-16T08:00:10;3.65;;;1.52;;
71104;SDS011;58760;48.716;8.962;2022-10-16T08:02:39;2.65;;;1.10;;
71104;SDS011;58760;48.716;8.962;2022-10-16T08:07:30;6.97;;;1.40;;
71104;SDS011;58760;48.716;8.962;2022-10-16T08:09:55;5.20;;;1.20;;
71104;SDS011;58760;48.716;8.962;2022-10-16T08:12:23;5.25;;;1.45;;
71104;SDS011;58760;48.716;8.962;2022-10-16T08:14:48;4.82;;;1.40;;
71104;SDS011;58760;48.716;8.962;2022-10-16T08:17:14;4.85;;;1.42;;
71104;SDS011;58760;48.716;8.962;2022-10-16T08:19:43;3.83;;;1.45;;
71104;SDS011;58760;48.716;8.962;2022-10-16T08:22:09;4.65;;;1.20;;
71104;SDS011;58760;48.716;8.962;2022-10-16T08:24:34;6.00;;;1.13;;
71104;SDS011;58760;48.716;8.962;2022-10-16T08:27:02;3.35;;;1.02;;
71104;SDS011;58760;48.716;8.962;2022-10-16T08:29:27;3.13;;;1.10;;
71104;SDS011;58760;48.716;8.962;2022-10-16T08:31:53;3.60;;;1.20;;
71104;SDS011;58760;48.716;8.962;2022-10-16T08:34:18;5.07;;;1.05;;
71104;SDS011;58760;48.716;8.962;2022-10-16T08:36:44;2.65;;;1.02;;
71104;SDS011;58760;48.716;8.962;2022-10-16T08:39:09;2.33;;;1.10;;
71104;SDS011;58760;48.716;8.962;2022-10-16T08:41:49;5.00;;;1.98;;
71104;SDS011;58760;48.716;8.962;2022-10-16T08:50:37;2.47;;;1.00;;
71104;SDS011;58760;48.716;8.962;2022-10-16T08:53:04;2.38;;;1.08;;
71104;SDS011;58760;48.716;8.962;2022-10-16T08:55:37;3.65;;;0.95;;
71104;SDS011;58760;48.716;8.962;2022-10-16T08:58:13;2.45;;;1.08;;
71104;SDS011;58760;48.716;8.962;2022-10-16T09:00:40;2.22;;;1.10;;
71104;SDS011;58760;48.716;8.962;2022-10-16T09:05:49;7.03;;;1.25;;
71104;SDS011;58760;48.716;8.962;2022-10-16T09:11:19;3.13;;;1.20;;
71104;SDS011;58760;48.716;8.962;2022-10-16T09:13:59;3.80;;;1.00;;
71104;SDS011;58760;48.716;8.962;2022-10-16T09:16:36;2.80;;;1.20;;
71104;SDS011;58760;48.716;8.962;2022-10-16T09:24:25;5.50;;;1.10;;
71104;SDS011;58760;48.716;8.962;2022-10-16T09:26:51;4.53;;;1.15;;
71104;SDS011;58760;48.716;8.962;2022-10-16T09:29:17;3.35;;;1.10;;
71104;SDS011;58760;48.716;8.962;2022-10-16T09:31:45;8.30;;;1.25;;
71104;SDS011;58760;48.716;8.962;2022-10-16T09:34:20;3.55;;;1.38;;
71104;SDS011;58760;48.716;8.962;2022-10-16T09:36:55;6.00;;;1.30;;
71104;SDS011;58760;48.716;8.962;2022-10-16T09:39:22;3.22;;;1.08;;
71104;SDS011;58760;48.716;8.962;2022-10-16T09:41:48;5.38;;;1.27;;
71104;SDS011;58760;48.716;8.962;2022-10-16T09:44:27;1.92;;;1.00;;
71104;SDS011;58760;48.716;8.962;2022-10-16T09:47:05;2.15;;;1.20;;
71104;SDS011;58760;48.716;8.962;2022-10-16T09:49:38;4.45;;;1.20;;
71104;SDS011;58760;48.716;8.962;2022-10-16T09:52:04;2.50;;;1.25;;
71104;SDS011;58760;48.716;8.962;2022-10-16T09:54:52;3.95;;;1.50;;
71104;SDS011;58760;48.716;8.962;2022-10-16T09:57:25;3.40;;;1.02;;
71104;SDS011;58760;48.716;8.962;2022-10-16T10:02:23;7.20;;;1.60;;
71104;SDS011;58760;48.716;8.962;2022-10-16T10:04:58;3.95;;;1.20;;
71104;SDS011;58760;48.716;8.962;2022-10-16T10:07:25;4.32;;;1.20;;
71104;SDS011;58760;48.716;8.962;2022-10-16T10:09:53;4.88;;;1.40;;
71104;SDS011;58760;48.716;8.962;2022-10-16T10:12:21;2.88;;;1.30;;
71104;SDS011;58760;48.716;8.962;2022-10-16T10:14:50;3.85;;;1.30;;
71104;SDS011;58760;48.716;8.962;2022-10-16T10:17:21;7.32;;;1.27;;
71104;SDS011;58760;48.716;8.962;2022-10-16T10:19:48;3.60;;;1.00;;
71104;SDS011;58760;48.716;8.962;2022-10-16T10:27:37;1.30;;;0.88;;
71104;SDS011;58760;48.716;8.962;2022-10-16T10:33:18;2.25;;;1.00;;
71104;SDS011;58760;48.716;8.962;2022-10-16T10:43:58;3.78;;;1.13;;
71104;SDS011;58760;48.716;8.962;2022-10-16T10:46:53;9.00;;;1.20;;
71104;SDS011;58760;48.716;8.962;2022-10-16T10:55:33;2.53;;;1.10;;
71104;SDS011;58760;48.716;8.962;2022-10-16T11:08:17;3.30;;;1.02;;
71104;SDS011;58760;48.716;8.962;2022-10-16T11:16:21;1.50;;;0.90;;
71104;SDS011;58760;48.716;8.962;2022-10-16T11:21:47;4.35;;;1.55;;
71104;SDS011;58760;48.716;8.962;2022-10-16T11:24:23;4.28;;;0.80;;
71104;SDS011;58760;48.716;8.962;2022-10-16T11:27:09;2.72;;;1.08;;
71104;SDS011;58760;48.716;8.962;2022-10-16T11:29:44;3.70;;;1.05;;
71104;SDS011;58760;48.716;8.962;2022-10-16T11:32:32;3.28;;;0.93;;
71104;SDS011;58760;48.716;8.962;2022-10-16T11:35:08;2.97;;;0.90;;
71104;SDS011;58760;48.716;8.962;2022-10-16T11:37:45;1.50;;;0.90;;
71104;SDS011;58760;48.716;8.962;2022-10-16T11:40:19;3.97;;;0.90;;
71104;SDS011;58760;48.716;8.962;2022-10-16T11:42:50;1.75;;;0.75;;
71104;SDS011;58760;48.716;8.962;2022-10-16T11:45:32;2.67;;;0.90;;
71104;SDS011;58760;48.716;8.962;2022-10-16T11:50:56;3.45;;;0.88;;
71104;SDS011;58760;48.716;8.962;2022-10-16T11:55:53;3.92;;;0.88;;
71104;SDS011;58760;48.716;8.962;2022-10-16T12:03:40;2.17;;;0.85;;
71104;SDS011;58760;48.716;8.962;2022-10-16T12:08:55;4.13;;;1.13;;
71104;SDS011;58760;48.716;8.962;2022-10-16T12:13:51;2.97;;;1.05;;
71104;SDS011;58760;48.716;8.962;2022-10-16T12:16:30;3.22;;;0.90;;
71104;SDS011;58760;48.716;8.962;2022-10-16T12:19:12;3.85;;;0.80;;
71104;SDS011;58760;48.716;8.962;2022-10-16T12:21:39;1.92;;;0.82;;
71104;SDS011;58760;48.716;8.962;2022-10-16T12:24:04;5.95;;;1.00;;
71104;SDS011;58760;48.716;8.962;2022-10-16T12:26:37;2.42;;;0.88;;
71104;SDS011;58760;48.716;8.962;2022-10-16T12:29:14;2.47;;;1.00;;
71104;SDS011;58760;48.716;8.962;2022-10-16T12:31:48;3.42;;;0.90;;
71104;SDS011;58760;48.716;8.962;2022-10-16T12:34:48;3.08;;;1.00;;
71104;SDS011;58760;48.716;8.962;2022-10-16T12:37:14;3.65;;;1.10;;
71104;SDS011;58760;48.716;8.962;2022-10-16T12:39:46;4.15;;;1.20;;
71104;SDS011;58760;48.716;8.962;2022-10-16T12:42:21;2.38;;;1.05;;
71104;SDS011;58760;48.716;8.962;2022-10-16T12:44:58;3.13;;;0.85;;
71104;SDS011;58760;48.716;8.962;2022-10-16T12:49:55;5.32;;;1.38;;
71104;SDS011;58760;48.716;8.962;2022-10-16T12:54:58;4.50;;;1.70;;
71104;SDS011;58760;48.716;8.962;2022-10-16T13:02:35;2.70;;;1.20;;
71104;SDS011;58760;48.716;8.962;2022-10-16T13:11:22;3.22;;;1.30;;
71104;SDS011;58760;48.716;8.962;2022-10-16T13:20:06;5.03;;;1.52;;
71104;SDS011;58760;48.716;8.962;2022-10-16T13:28:12;3.03;;;1.00;;
71104;SDS011;58760;48.716;8.962;2022-10-16T13:30:42;1.67;;;0.90;;
71104;SDS011;58760;48.716;8.962;2022-10-16T13:33:13;6.13;;;1.20;;
71104;SDS011;58760;48.716;8.962;2022-10-16T13:35:51;3.08;;;1.02;;
71104;SDS011;58760;48.716;8.962;2022-10-16T13:38:22;2.97;;;1.25;;
71104;SDS011;58760;48.716;8.962;2022-10-16T13:40:50;4.07;;;1.33;;
71104;SDS011;58760;48.716;8.962;2022-10-16T13:43:18;2.97;;;1.05;;
71104;SDS011;58760;48.716;8.962;2022-10-16T13:45:55;5.97;;;1.50;;
71104;SDS011;58760;48.716;8.962;2022-10-16T13:48:22;3.28;;;1.30;;
71104;SDS011;58760;48.716;8.962;2022-10-16T13:50:57;6.78;;;1.30;;
71104;SDS011;58760;48.716;8.962;2022-10-16T13:53:32;2.47;;;1.10;;
71104;SDS011;58760;48.716;8.962;2022-10-16T13:56:02;2.45;;;1.08;;
71104;SDS011;58760;48.716;8.962;2022-10-16T13:58:31;3.83;;;1.30;;
71104;SDS011;58760;48.716;8.962;2022-10-16T14:01:01;2.45;;;1.17;;
71104;SDS011;58760;48.716;8.962;2022-10-16T14:03:29;3.55;;;1.33;;
71104;SDS011;58760;48.716;8.962;2022-10-16T14:05:56;4.80;;;1.33;;
71104;SDS011;58760;48.716;8.962;2022-10-16T14:08:24;5.03;;;1.40;;
71104;SDS011;58760;48.716;8.962;2022-10-16T14:10:53;5.18;;;1.50;;
71104;SDS011;58760;48.716;8.962;2022-10-16T14:13:27;2.90;;;1.30;;
71104;SDS011;58760;48.716;8.962;2022-10-16T14:16:00;3.67;;;1.40;;
71104;SDS011;58760;48.716;8.962;2022-10-16T14:18:30;5.78;;;1.48;;
71104;SDS011;58760;48.716;8.962;2022-10-16T14:21:02;5.80;;;1.52;;
71104;SDS011;58760;48.716;8.962;2022-10-16T14:23:29;3.15;;;1.20;;
71104;SDS011;58760;48.716;8.962;2022-10-16T14:28:34;4.35;;;1.40;;
71104;SDS011;58760;48.716;8.962;2022-10-16T14:31:01;2.15;;;1.10;;
71104;SDS011;58760;48.716;8.962;2022-10-16T14:33:42;7.15;;;1.42;;
71104;SDS011;58760;48.716;8.962;2022-10-16T14:36:14;5.38;;;1.30;;
71104;SDS011;58760;48.716;8.962;2022-10-16T14:38:48;4.28;;;1.50;;
71104;SDS011;58760;48.716;8.962;2022-10-16T14:41:20;3.85;;;1.35;;
71104;SDS011;58760;48.716;8.962;2022-10-16T14:43:49;2.55;;;1.30;;
71104;SDS011;58760;48.716;8.962;2022-10-16T14:46:21;3.75;;;1.27;;
71104;SDS011;58760;48.716;8.962;2022-10-16T14:49:36;4.25;;;1.52;;
71104;SDS011;58760;48.716;8.962;2022-10-16T14:51:45;3.08;;;1.30;;
71104;SDS011;58760;48.716;8.962;2022-10-16T14:54:15;4.80;;;1.35;;
71104;SDS011;58760;48.716;8.962;2022-10-16T14:56:45;3.75;;;1.40;;
71104;SDS011;58760;48.716;8.962;2022-10-16T14:59:32;5.78;;;1.60;;
71104;SDS011;58760;48.716;8.962;2022-10-16T15:04:45;3.92;;;1.58;;
71104;SDS011;58760;48.716;8.962;2022-10-16T15:07:10;3.70;;;1.27;;
71104;SDS011;58760;48.716;8.962;2022-10-16T15:09:35;4.47;;;1.50;;
71104;SDS011;58760;48.716;8.962;2022-10-16T15:12:01;5.45;;;1.48;;
71104;SDS011;58760;48.716;8.962;2022-10-16T15:14:26;3.85;;;1.25;;
71104;SDS011;58760;48.716;8.962;2022-10-16T15:16:52;3.50;;;1.33;;
71104;SDS011;58760;48.716;8.962;2022-10-16T15:19:17;2.80;;;1.20;;
71104;SDS011;58760;48.716;8.962;2022-10-16T15:21:42;2.55;;;1.30;;
71104;SDS011;58760;48.716;8.962;2022-10-16T15:24:09;2.60;;;1.13;;
71104;SDS011;58760;48.716;8.962;2022-10-16T15:26:37;3.15;;;1.23;;
71104;SDS011;58760;48.716;8.962;2022-10-16T15:29:03;5.15;;;1.30;;
71104;SDS011;58760;48.716;8.962;2022-10-16T15:31:28;3.63;;;1.35;;
71104;SDS011;58760;48.716;8.962;2022-10-16T15:33:53;3.97;;;1.25;;
71104;SDS011;58760;48.716;8.962;2022-10-16T15:36:29;3.17;;;1.30;;
71104;SDS011;58760;48.716;8.962;2022-10-16T15:38:56;4.60;;;1.70;;
71104;SDS011;58760;48.716;8.962;2022-10-16T15:43:47;4.28;;;1.65;;
71104;SDS011;58760;48.716;8.962;2022-10-16T15:46:14;4.80;;;1.65;;
71104;SDS011;58760;48.716;8.962;2022-10-16T15:48:43;3.75;;;1.55;;
71104;SDS011;58760;48.716;8.962;2022-10-16T15:53:34;5.57;;;1.55;;
71104;SDS011;58760;48.716;8.962;2022-10-16T15:56:04;4.18;;;1.30;;
71104;SDS011;58760;48.716;8.962;2022-10-16T15:58:31;3.65;;;1.25;;
71104;SDS011;58760;48.716;8.962;2022-10-16T16:03:23;2.88;;;1.20;;
71104;SDS011;58760;48.716;8.962;2022-10-16T16:08:14;5.25;;;1.38;;
71104;SDS011;58760;48.716;8.962;2022-10-16T16:13:04;4.25;;;1.38;;
71104;SDS011;58760;48.716;8.962;2022-10-16T16:17:55;7.18;;;1.38;;
71104;SDS011;58760;48.716;8.962;2022-10-16T16:20:20;3.97;;;1.48;;
71104;SDS011;58760;48.716;8.962;2022-10-16T16:22:46;3.80;;;1.35;;
71104;SDS011;58760;48.716;8.962;2022-10-16T16:27:37;3.03;;;1.20;;
71104;SDS011;58760;48.716;8.962;2022-10-16T16:32:29;4.55;;;1.70;;
71104;SDS011;58760;48.716;8.962;2022-10-16T16:37:20;3.88;;;1.65;;
71104;SDS011;58760;48.716;8.962;2022-10-16T16:39:45;3.65;;;1.77;;
71104;SDS011;58760;48.716;8.962;2022-10-16T16:42:10;6.78;;;2.25;;
71104;SDS011;58760;48.716;8.962;2022-10-16T16:44:36;5.55;;;2.63;;
71104;SDS011;58760;48.716;8.962;2022-10-16T16:47:05;9.30;;;3.40;;
71104;SDS011;58760;48.716;8.962;2022-10-16T16:49:31;7.03;;;3.88;;
71104;SDS011;58760;48.716;8.962;2022-10-16T16:51:56;10.27;;;3.97;;
71104;SDS011;58760;48.716;8.962;2022-10-16T16:54:22;13.13;;;4.95;;
71104;SDS011;58760;48.716;8.962;2022-10-16T16:56:47;9.98;;;5.20;;
71104;SDS011;58760;48.716;8.962;2022-10-16T16:59:13;12.93;;;6.13;;
71104;SDS011;58760;48.716;8.962;2022-10-16T17:01:41;14.50;;;6.10;;
71104;SDS011;58760;48.716;8.962;2022-10-16T17:04:07;12.30;;;5.55;;
71104;SDS011;58760;48.716;8.962;2022-10-16T17:06:33;13.15;;;4.90;;
71104;SDS011;58760;48.716;8.962;2022-10-16T17:09:00;12.35;;;4.68;;
71104;SDS011;58760;48.716;8.962;2022-10-16T17:11:27;8.38;;;4.38;;
71104;SDS011;58760;48.716;8.962;2022-10-16T17:13:53;12.18;;;4.60;;
71104;SDS011;58760;48.716;8.962;2022-10-16T17:16:21;18.02;;;5.20;;
71104;SDS011;58760;48.716;8.962;2022-10-16T17:18:48;11.55;;;4.60;;
71104;SDS011;58760;48.716;8.962;2022-10-16T17:21:14;12.18;;;5.38;;
71104;SDS011;58760;48.716;8.962;2022-10-16T17:23:39;13.32;;;6.43;;
71104;SDS011;58760;48.716;8.962;2022-10-16T17:28:35;14.45;;;5.13;;
71104;SDS011;58760;48.716;8.962;2022-10-16T17:31:08;10.82;;;4.82;;